METAR Data
IDs: Format: Raw Decoded Include TAF

Data at: 2312 UTC 25 Oct 2021

PASA 252304Z AUTO 31009KT 2SM -SN BR SCT006 BKN012 OVC017 M04/M06 A2947 RMK AO2 VIS 1 1/2V4 P0000 FZRANO
PASA 252256Z AUTO 30011KT 1/2SM -SN FZFG BKN006 BKN010 OVC022 M04/M06 A2947 RMK AO2 CIG 004V009 SLP982 P0000 T10441061 FZRANO
PASA 252254Z AUTO 29012KT 1/2SM SN FZFG BKN006 BKN010 OVC022 M04/M06 A2947 RMK AO2 CIG 004V009 P0000 FZRANO
PASA 252247Z AUTO 30018KT 1SM -SN BR FEW006 BKN010 OVC022 M04/M06 A2947 RMK AO2 VIS 1/4V2 1/2 P0000 FZRANO
PASA 252241Z AUTO 27014G17KT 2SM -SN BR FEW008 BKN020 OVC029 M04/M06 A2947 RMK AO2 VIS 1V4 P0000 FZRANO
PASA 252231Z AUTO 30010G16KT 2SM -SN BR BKN013 BKN020 OVC026 M04/M06 A2947 RMK AO2 VIS 1 1/4V5 P0000 FZRANO
PASA 252227Z AUTO 31010KT 1 1/2SM -SN BR SCT015 BKN020 OVC026 M04/M06 A2947 RMK AO2 VIS 1V3 P0000 FZRANO
PASA 252214Z AUTO 30013KT 2SM -SN BR SCT015 BKN022 OVC033 M04/M06 A2947 RMK AO2 P0000 FZRANO
PASA 252156Z AUTO 30012KT 9SM -SN SCT023 BKN028 OVC036 M04/M07 A2947 RMK AO2 UPE2057SNB2057 SLP979 P0000 T10391067 FZRANO
PASA 252129Z AUTO 28010KT 5SM -SN BR SCT018 BKN024 OVC035 M04/M06 A2947 RMK AO2 UPE2057SNB2057 P0000 FZRANO
PASA 252104Z AUTO 30015KT 2 1/2SM -SN BR SCT018 BKN024 OVC041 M04/M07 A2947 RMK AO2 VIS 2V4 UPE2057SNB2057 P0000 FZRANO
PASA 252056Z AUTO 30015KT 6SM UP FEW023 OVC041 M04/M07 A2947 RMK AO2 UPB54SNE47 SLP980 P0000 60000 T10391072 53002 FZRANO
PASA 251956Z AUTO 29015KT 9SM -SN FEW029 OVC042 M04/M08 A2946 RMK AO2 SNB12 SLP977 P0000 T10391078 FZRANO
PASA 251856Z AUTO 30015KT 10SM FEW026 OVC050 M04/M08 A2946 RMK AO2 SNE32 SLP976 P0000 T10441078 FZRANO
PASA 251756Z AUTO 30017KT 7SM -SN OVC030 M04/M06 A2946 RMK AO2 SLP977 P0000 60000 T10441061 11033 21044 52004 FZRANO
PASA 251733Z AUTO 29017KT 9SM -SN FEW015 SCT020 OVC030 M04/M06 A2946 RMK AO2 P0000 FZRANO
PASA 251725Z AUTO 29019KT 9SM -SN FEW006 BKN029 OVC034 M04/M06 A2946 RMK AO2 P0000 FZRANO
PASA 251715Z AUTO 30014KT 7SM -SN FEW008 BKN013 OVC029 M04/M05 A2946 RMK AO2 P0000 FZRANO
PASA 251707Z AUTO 30013KT 2SM -SN BR BKN008 OVC017 M04/M06 A2946 RMK AO2 CIG 003V013 P0000 FZRANO
PASA 251656Z AUTO 29012KT 1 3/4SM -SN BR BKN010 BKN013 OVC018 M04/M05 A2946 RMK AO2 CIG 005V012 SLP978 P0000 T10391050 FZRANO
PASA 251654Z AUTO 29014KT 1 3/4SM -SN BR BKN010 OVC018 M04/M05 A2946 RMK AO2 CIG 005V015 P0000 FZRANO
PASA 251647Z AUTO 30014KT 2 1/2SM -SN BR BKN008 BKN014 OVC018 M04/M05 A2946 RMK AO2 CIG 005V011 P0000 FZRANO
PASA 251623Z AUTO 31009KT 1SM -SN BR BKN006 OVC014 M04/M05 A2946 RMK AO2 CIG 004V011 P0000 FZRANO
PASA 251611Z AUTO 30017G20KT 1SM -SN BR SCT006 BKN014 OVC025 M04/M06 A2945 RMK AO2 P0000 FZRANO
PASA 251601Z AUTO 27015KT 2 1/2SM -SN BR BKN014 OVC025 M03/M06 A2945 RMK AO2 P0000 FZRANO
PASA 251556Z AUTO 27015KT 3SM -SN BR SCT016 BKN027 OVC037 M04/M06 A2945 RMK AO2 SLP974 P0000 T10391061 FZRANO
PASA 251456Z AUTO 27015G18KT 4SM -SN BR BKN017 BKN022 OVC030 M04/M06 A2945 RMK AO2 WSHFT 1437 SLP974 P0000 60000 T10391061 50000 FZRANO
PASA 251356Z AUTO 27015KT 8SM -SN BKN019 OVC024 M03/M06 A2945 RMK AO2 SLP974 P0000 T10331056 FZRANO
PASA 251256Z AUTO 26018G23KT 3SM -SN BR OVC015 M03/M06 A2945 RMK AO2 PK WND 26026/1157 SLP974 P0000 T10331056 FZRANO
PASA 251156Z AUTO 26022KT 6SM -SN BKN021 BKN027 OVC034 M03/M06 A2945 RMK AO2 PK WND 26027/1137 SLP974 P0000 60000 T10331061 11022 21044 58012 FZRANO
PASA 251056Z AUTO 26019G27KT 7SM -SN BKN025 BKN030 M04/M08 A2946 RMK AO2 PK WND 27028/1011 SLP977 P0000 T10391078 FZRANO
PASA 251003Z AUTO 27021G27KT 7SM -SN BKN029 OVC034 M03/M07 A2948 RMK AO2 PK WND 27027/0957 P0000 FZRANO
PASA 250956Z AUTO 27020G23KT 9SM -SN OVC031 M03/M07 A2948 RMK AO2 SNB45 SLP983 P0000 T10281072 FZRANO
PASA 250939Z AUTO 26016KT 10SM BKN029 BKN035 M03/M08 A2948 RMK AO2 FZRANO
PASA 250915Z AUTO 27016KT 10SM SCT029 M03/M08 A2948 RMK AO2 FZRANO
PASA 250856Z AUTO 27017KT 10SM BKN029 OVC060 M02/M07 A2948 RMK AO2 SLP985 60000 T10221067 56002 FZRANO
PASA 250852Z AUTO 28014KT 10SM BKN029 OVC060 M02/M07 A2949 RMK AO2 FZRANO
PASA 250756Z AUTO 29019KT 10SM OVC049 M03/M06 A2948 RMK AO2 WSHFT 0741 SNE30 SLP985 P0000 T10281061 410171044 FZRANO
PASA 250729Z AUTO 26004KT 9SM -SN FEW013 BKN030 BKN036 M03/M04 A2949 RMK AO2 P0000 FZRANO
PASA 250709Z AUTO 27006KT 3SM -SN BR FEW007 BKN017 OVC028 M03/M04 A2949 RMK AO2 P0000 FZRANO
PASA 250705Z AUTO 26006KT 1 3/4SM -SN BR FEW007 BKN011 OVC023 M03/M04 A2949 RMK AO2 P0000 FZRANO
PASA 250656Z AUTO 26007KT 1 3/4SM -SN BR SCT009 OVC015 M03/M04 A2949 RMK AO2 SNB08 SLP988 P0000 T10281044 FZRANO
PASA 250643Z AUTO 25008KT 1 1/2SM -SN BR SCT009 BKN015 OVC021 M03/M04 A2949 RMK AO2 SNB08 P0000 FZRANO
PASA 250627Z AUTO 26008KT 2 1/2SM -SN FEW009 SCT018 OVC027 M02/M06 A2949 RMK AO2 VIS 1 3/4V5 SNB08 P0000 FZRANO
PASA 250556Z AUTO 32008KT 10SM BKN027 OVC038 M02/M06 A2949 RMK AO2 SLP989 T10221061 11017 21033 56005 FZRANO
PASA 250456Z AUTO 31007KT 10SM BKN034 BKN045 M03/M06 A2950 RMK AO2 SLP990 T10281061 FZRANO
PASA 250356Z AUTO 35012KT 10SM OVC075 M03/M06 A2950 RMK AO2 SLP991 T10281061 FZRANO
PASA 250256Z AUTO 34013KT 10SM OVC070 M02/M06 A2951 RMK AO2 SLP994 T10221061 56008 FZRANO
PASA 250156Z AUTO 32015KT 10SM SCT021 OVC080 M02/M06 A2951 RMK AO2 SLP995 T10221056 FZRANO
PASA 250130Z AUTO 33014G21KT 10SM SCT021 OVC080 M02/M06 A2952 RMK AO2 FZRANO
PASA 250056Z AUTO 32016KT 10SM OVC019 M02/M06 A2952 RMK AO2 SLP999 T10221056 FZRANO
PASA 242356Z AUTO 33014G19KT 10SM BKN017 M02/M05 A2953 RMK AO2 SLP002 60000 T10221050 11017 21028 58005 FZRANO
PASA 242256Z AUTO 34015KT 10SM BKN017 OVC045 M02/M04 A2954 RMK AO2 SLP005 T10171044 FZRANO
PASA 242156Z AUTO 32015KT 10SM OVC015 M02/M05 A2955 RMK AO2 SLP008 T10221050 FZRANO
PASA 242056Z AUTO 32014KT 10SM OVC013 M02/M04 A2955 RMK AO2 SNE10 SLP008 P0000 60000 T10221044 56001 FZRANO
PASA 242049Z AUTO 31016KT 10SM BKN013 OVC018 M02/M04 A2955 RMK AO2 SNE10 P0000 FZRANO
PASA 242027Z AUTO 31015KT 10SM OVC016 M02/M05 A2955 RMK AO2 SNE10 P0000 FZRANO
PASA 241956Z AUTO 31015KT 9SM -SN OVC014 M02/M04 A2955 RMK AO2 SNB00E11B30 SLP008 P0000 T10221044 FZRANO
PASA 241856Z AUTO 32015KT 10SM OVC014 M03/M05 A2955 RMK AO2 SLP008 T10281050 FZRANO
PASA 241756Z AUTO 32016G20KT 10SM OVC014 M02/M04 A2955 RMK AO2 SNB18E27 SLP008 P0000 60000 T10221044 11017 21022 58009 FZRANO
PASA 241656Z AUTO 31016G22KT 10SM OVC014 M02/M04 A2957 RMK AO2 SLP014 T10221044 FZRANO
PASA 241646Z AUTO 31015KT 10SM OVC014 M02/M04 A2957 RMK AO2 FZRANO
PASA 241634Z AUTO 31018KT 10SM OVC016 M02/M04 A2957 RMK AO2 FZRANO
PASA 241556Z AUTO 31017G22KT 10SM OVC014 M02/M04 A2957 RMK AO2 SLP015 T10221044 FZRANO
PASA 241456Z AUTO 31018KT 10SM OVC014 M02/M04 A2958 RMK AO2 SNE32 SLP017 P0000 60000 T10221044 58002 FZRANO
PASA 241323Z AUTO 31019KT 8SM -SN OVC014 M02/M04 A2958 RMK AO2 P0000 FZRANO
PASA 241256Z AUTO 32019KT 7SM -SN OVC016 M02/M04 A2958 RMK AO2 SLP019 P0000 T10221039 FZRANO
PASA 241251Z AUTO 32019KT 8SM -SN OVC016 M02/M04 A2958 RMK AO2 P0000 FZRANO
PASA 241156Z AUTO 32020KT 6SM -SN BR BKN013 OVC018 M02/M03 A2958 RMK AO2 SLP017 P0000 60000 T10171033 11011 21017 55000 FZRANO
PASA 241123Z AUTO 32018KT 6SM -SN BR OVC014 M02/M03 A2958 RMK AO2 P0000 FZRANO